createdAt,value
2024-02-26T00:01:19.208Z,0.47
2024-02-26T00:03:48.418Z,0.80
2024-02-26T00:06:15.904Z,0.80
2024-02-26T00:08:44.295Z,1.02
2024-02-26T00:11:11.374Z,0.70
2024-02-26T00:13:38.560Z,0.65
2024-02-26T00:16:07.515Z,0.90
2024-02-26T00:18:35.488Z,0.73
2024-02-26T00:21:03.771Z,0.70
2024-02-26T00:23:30.849Z,0.85
2024-02-26T00:25:59.396Z,0.70
2024-02-26T00:28:30.390Z,0.70
2024-02-26T00:30:59.014Z,0.77
2024-02-26T00:33:26.159Z,1.10
2024-02-26T00:35:53.349Z,0.70
2024-02-26T00:38:21.427Z,0.70
2024-02-26T00:40:48.429Z,0.60
2024-02-26T00:43:16.753Z,0.80
2024-02-26T00:45:43.742Z,0.73
2024-02-26T00:48:10.842Z,0.95
2024-02-26T00:50:38.169Z,0.57
2024-02-26T00:53:05.371Z,0.93
2024-02-26T00:55:32.368Z,0.82
2024-02-26T00:57:59.324Z,0.82
2024-02-26T01:00:27.803Z,0.85
2024-02-26T01:02:54.952Z,0.70
2024-02-26T01:05:22.352Z,0.60
2024-02-26T01:07:49.614Z,0.77
2024-02-26T01:10:16.847Z,1.00
2024-02-26T01:12:44.232Z,0.88
2024-02-26T01:15:11.478Z,0.80
2024-02-26T01:17:40.528Z,0.80
2024-02-26T01:20:09.948Z,0.80
2024-02-26T01:22:37.140Z,0.70
2024-02-26T01:25:04.613Z,0.88
2024-02-26T01:27:31.572Z,0.70
2024-02-26T01:29:59.769Z,1.17
2024-02-26T01:32:29.391Z,1.02
2024-02-26T01:34:58.321Z,0.75
2024-02-26T01:37:25.348Z,0.68
2024-02-26T01:39:52.434Z,0.60
2024-02-26T01:42:19.534Z,0.52
2024-02-26T01:44:46.731Z,0.70
2024-02-26T01:47:14.875Z,0.80
2024-02-26T01:49:46.604Z,0.80
2024-02-26T01:52:15.272Z,0.82
2024-02-26T01:54:43.654Z,1.10
2024-02-26T01:57:11.266Z,1.00
2024-02-26T01:59:38.901Z,1.13
2024-02-26T02:02:10.010Z,0.90
2024-02-26T02:04:38.373Z,0.60
2024-02-26T02:07:06.601Z,0.75
2024-02-26T02:09:35.014Z,1.00
2024-02-26T02:12:02.176Z,0.98
2024-02-26T02:14:29.572Z,0.90
2024-02-26T02:16:56.955Z,0.75
2024-02-26T02:19:25.101Z,1.15
2024-02-26T02:21:53.417Z,0.77
2024-02-26T02:24:20.544Z,0.80
2024-02-26T02:26:47.955Z,0.70
2024-02-26T02:29:16.002Z,0.60
2024-02-26T02:31:43.247Z,0.95
2024-02-26T02:34:11.162Z,1.00
2024-02-26T02:36:50.110Z,0.60
2024-02-26T02:39:18.863Z,0.95
2024-02-26T02:41:46.311Z,0.90
2024-02-26T02:44:13.446Z,1.02
2024-02-26T02:46:40.450Z,1.08
2024-02-26T02:49:10.370Z,0.88
2024-02-26T02:51:38.187Z,1.05
2024-02-26T02:54:05.464Z,1.10
2024-02-26T02:56:33.880Z,0.63
2024-02-26T02:59:00.904Z,0.80
2024-02-26T03:01:28.467Z,0.70
2024-02-26T03:03:55.574Z,0.80
2024-02-26T03:06:22.757Z,1.00
2024-02-26T03:08:50.085Z,1.25
2024-02-26T03:11:17.681Z,0.77
2024-02-26T03:13:46.741Z,0.82
2024-02-26T03:16:14.128Z,0.57
2024-02-26T03:18:41.574Z,1.10
2024-02-26T03:21:09.831Z,0.80
2024-02-26T03:23:37.670Z,0.80
2024-02-26T03:26:05.220Z,0.80
2024-02-26T03:28:34.376Z,0.65
2024-02-26T03:31:03.611Z,0.90
2024-02-26T03:33:31.130Z,0.82
2024-02-26T03:35:58.347Z,0.98
2024-02-26T03:38:25.395Z,0.73
2024-02-26T03:40:52.608Z,0.70
2024-02-26T03:43:19.691Z,0.82
2024-02-26T03:45:46.996Z,1.05
2024-02-26T03:48:15.607Z,1.25
2024-02-26T03:50:42.748Z,1.00
2024-02-26T03:53:14.780Z,1.13
2024-02-26T03:55:43.153Z,1.48
2024-02-26T03:58:10.510Z,0.95
2024-02-26T04:00:38.357Z,1.00
2024-02-26T04:03:05.864Z,0.98
2024-02-26T04:05:34.244Z,1.42
2024-02-26T04:08:01.157Z,1.00
2024-02-26T04:10:29.756Z,0.90
2024-02-26T04:12:56.710Z,1.88
2024-02-26T04:15:24.087Z,1.40
2024-02-26T04:17:51.202Z,1.10
2024-02-26T04:20:18.601Z,0.80
2024-02-26T04:22:47.138Z,1.65
2024-02-26T04:25:14.386Z,0.98
2024-02-26T04:27:41.495Z,1.15
2024-02-26T04:30:09.546Z,1.35
2024-02-26T04:32:36.667Z,0.70
2024-02-26T04:35:04.528Z,1.20
2024-02-26T04:37:32.449Z,0.90
2024-02-26T04:40:01.871Z,1.10
2024-02-26T04:42:29.269Z,1.13
2024-02-26T04:44:56.579Z,0.90
2024-02-26T04:47:23.866Z,1.10
2024-02-26T04:49:51.074Z,1.00
2024-02-26T04:52:18.281Z,1.25
2024-02-26T04:54:45.297Z,0.98
2024-02-26T04:57:14.317Z,1.33
2024-02-26T04:59:43.493Z,1.27
2024-02-26T05:02:10.997Z,1.00
2024-02-26T05:04:38.167Z,1.27
2024-02-26T05:07:05.536Z,1.15
2024-02-26T05:09:33.047Z,0.80
2024-02-26T05:12:00.167Z,1.20
2024-02-26T05:14:28.680Z,1.00
2024-02-26T05:16:55.648Z,1.15
2024-02-26T05:19:22.743Z,1.15
2024-02-26T05:21:51.492Z,0.93
2024-02-26T05:24:19.014Z,1.13
2024-02-26T05:26:46.981Z,0.93
2024-02-26T05:29:14.281Z,1.23
2024-02-26T05:31:44.191Z,1.00
2024-02-26T05:34:11.408Z,1.00
2024-02-26T05:36:38.446Z,1.40
2024-02-26T05:39:05.564Z,1.00
2024-02-26T05:41:33.877Z,1.05
2024-02-26T05:44:01.283Z,1.38
2024-02-26T05:46:28.677Z,1.02
2024-02-26T05:48:57.366Z,1.23
2024-02-26T05:51:24.386Z,1.35
2024-02-26T05:53:55.601Z,1.30
2024-02-26T05:56:24.803Z,1.17
2024-02-26T05:58:53.032Z,1.23
2024-02-26T06:01:22.306Z,1.15
2024-02-26T06:03:49.414Z,0.85
2024-02-26T06:06:19.002Z,1.23
2024-02-26T06:08:46.176Z,1.33
2024-02-26T06:11:13.199Z,1.10
2024-02-26T06:13:40.821Z,1.10
2024-02-26T06:16:09.496Z,0.80
2024-02-26T06:18:36.592Z,1.35
2024-02-26T06:21:04.185Z,1.30
2024-02-26T06:23:32.567Z,1.10
2024-02-26T06:25:59.579Z,1.20
2024-02-26T06:28:26.552Z,1.00
2024-02-26T06:30:54.279Z,1.40
2024-02-26T06:33:21.605Z,1.20
2024-02-26T06:35:48.729Z,1.00
2024-02-26T06:38:16.500Z,1.75
2024-02-26T06:40:45.849Z,1.40
2024-02-26T06:43:12.805Z,1.33
2024-02-26T06:45:40.413Z,1.23
2024-02-26T06:48:08.292Z,1.33
2024-02-26T06:50:35.415Z,1.30
2024-02-26T06:53:02.436Z,1.23
2024-02-26T06:55:29.812Z,1.20
2024-02-26T06:57:58.422Z,1.30
2024-02-26T07:00:25.527Z,1.45
2024-02-26T07:02:52.672Z,1.40
2024-02-26T07:05:19.767Z,1.40
2024-02-26T07:07:46.699Z,1.40
2024-02-26T07:10:13.990Z,1.65
2024-02-26T07:12:41.137Z,1.10
2024-02-26T07:15:11.284Z,1.50
2024-02-26T07:17:38.806Z,1.00
2024-02-26T07:20:10.338Z,1.20
2024-02-26T07:22:37.697Z,1.58
2024-02-26T07:25:05.641Z,1.50
2024-02-26T07:27:32.844Z,1.50
2024-02-26T07:30:00.265Z,1.45
2024-02-26T07:32:28.723Z,1.77
2024-02-26T07:34:55.742Z,1.70
2024-02-26T07:37:22.753Z,1.92
2024-02-26T07:39:49.783Z,1.35
2024-02-26T07:42:16.802Z,1.45
2024-02-26T07:44:44.622Z,1.67
2024-02-26T07:47:11.654Z,1.25
2024-02-26T07:49:41.082Z,1.58
2024-02-26T07:52:08.203Z,1.70
2024-02-26T07:54:35.198Z,1.52
2024-02-26T07:57:04.858Z,1.95
2024-02-26T07:59:32.948Z,1.55
2024-02-26T08:02:00.197Z,1.50
2024-02-26T08:04:28.164Z,1.63
2024-02-26T08:06:56.779Z,1.35
2024-02-26T08:09:23.930Z,1.75
2024-02-26T08:11:51.085Z,1.73
2024-02-26T08:14:18.136Z,2.05
2024-02-26T08:16:45.099Z,1.10
2024-02-26T08:19:14.601Z,1.67
2024-02-26T08:21:41.937Z,1.80
2024-02-26T08:24:10.829Z,1.92
2024-02-26T08:26:37.923Z,1.80
2024-02-26T08:29:04.856Z,1.60
2024-02-26T08:31:31.972Z,2.13
2024-02-26T08:34:00.438Z,1.95
2024-02-26T08:36:28.135Z,1.73
2024-02-26T08:38:55.277Z,1.75
2024-02-26T08:41:23.770Z,1.58
2024-02-26T08:43:50.835Z,1.83
2024-02-26T08:46:17.869Z,2.35
2024-02-26T08:48:45.284Z,1.52
2024-02-26T08:51:15.022Z,1.90
2024-02-26T08:53:43.762Z,2.00
2024-02-26T08:56:17.808Z,2.20
2024-02-26T08:58:49.779Z,1.95
2024-02-26T09:01:17.342Z,1.80
2024-02-26T09:03:45.006Z,1.73
2024-02-26T09:06:15.670Z,1.95
2024-02-26T09:08:43.103Z,1.75
2024-02-26T09:11:11.409Z,1.92
2024-02-26T09:13:38.835Z,2.03
2024-02-26T09:16:07.967Z,2.00
2024-02-26T09:18:35.092Z,1.88
2024-02-26T09:21:06.185Z,1.42
2024-02-26T09:23:33.845Z,1.95
2024-02-26T09:26:00.905Z,1.60
2024-02-26T09:28:27.957Z,1.38
2024-02-26T09:30:55.619Z,1.63
2024-02-26T09:33:24.081Z,1.60
2024-02-26T09:35:51.181Z,1.23
2024-02-26T09:38:18.317Z,1.92
2024-02-26T09:40:45.320Z,1.80
2024-02-26T09:43:15.600Z,0.95
2024-02-26T09:45:43.245Z,1.23
2024-02-26T09:48:11.514Z,1.50
2024-02-26T09:50:42.130Z,1.50
2024-02-26T09:53:11.395Z,1.45
2024-02-26T09:55:38.528Z,1.40
2024-02-26T09:58:07.401Z,1.85
2024-02-26T10:00:39.306Z,1.90
2024-02-26T10:03:10.757Z,1.75
2024-02-26T10:05:39.909Z,1.35
2024-02-26T10:08:09.538Z,1.50
2024-02-26T10:10:37.485Z,1.50
2024-02-26T10:13:10.988Z,1.38
2024-02-26T10:15:38.180Z,1.40
2024-02-26T10:18:06.451Z,1.10
2024-02-26T10:20:34.372Z,1.38
2024-02-26T10:23:08.677Z,1.42
2024-02-26T10:25:36.305Z,1.33
2024-02-26T10:28:03.845Z,1.77
2024-02-26T10:30:31.696Z,1.33
2024-02-26T10:32:59.386Z,1.42
2024-02-26T10:35:27.385Z,1.02
2024-02-26T10:37:55.374Z,1.38
2024-02-26T10:40:23.729Z,1.08
2024-02-26T10:42:51.271Z,1.08
2024-02-26T10:45:19.081Z,1.00
2024-02-26T10:47:46.935Z,1.30
2024-02-26T10:50:16.327Z,1.30
2024-02-26T10:52:43.807Z,1.30
2024-02-26T10:55:19.627Z,1.20
2024-02-26T10:57:52.197Z,1.27
2024-02-26T11:02:52.631Z,1.27
2024-02-26T11:05:20.964Z,0.80
2024-02-26T11:07:50.441Z,1.00
2024-02-26T11:10:18.615Z,1.00
2024-02-26T11:15:21.272Z,0.73
2024-02-26T11:17:49.568Z,1.02
2024-02-26T11:20:18.578Z,1.00
2024-02-26T11:22:45.646Z,1.00
2024-02-26T11:27:51.536Z,0.85
2024-02-26T11:30:19.802Z,0.77
2024-02-26T11:32:47.717Z,0.88
2024-02-26T11:35:17.942Z,0.95
2024-02-26T11:37:53.788Z,1.02
2024-02-26T11:40:20.853Z,0.77
2024-02-26T11:42:49.507Z,0.70
2024-02-26T11:45:53.919Z,0.80
2024-02-26T11:48:26.394Z,0.70
2024-02-26T11:50:55.058Z,0.68
2024-02-26T11:53:27.279Z,0.60
2024-02-26T11:56:33.395Z,0.70
2024-02-26T11:59:05.539Z,0.40
2024-02-26T12:01:43.561Z,0.77
2024-02-26T12:04:17.933Z,0.68
2024-02-26T12:06:52.800Z,0.60
2024-02-26T12:09:35.455Z,0.93
2024-02-26T12:12:04.070Z,0.68
2024-02-26T12:14:34.825Z,0.60
2024-02-26T12:17:02.709Z,0.85
2024-02-26T12:19:29.890Z,0.50
2024-02-26T12:24:30.198Z,0.52
2024-02-26T12:26:57.302Z,0.60
2024-02-26T12:29:24.332Z,0.65
2024-02-26T12:31:52.868Z,0.32
2024-02-26T12:36:52.762Z,0.50
2024-02-26T12:39:21.238Z,0.45
2024-02-26T12:41:50.730Z,0.80
2024-02-26T12:44:18.986Z,0.50
2024-02-26T12:46:46.202Z,0.80
2024-02-26T12:49:17.405Z,0.60
2024-02-26T12:51:45.507Z,0.50
2024-02-26T12:54:13.895Z,0.70
2024-02-26T12:56:42.083Z,0.60
2024-02-26T12:59:09.647Z,0.50
2024-02-26T13:01:37.243Z,0.73
2024-02-26T13:04:07.768Z,0.60
2024-02-26T13:06:37.167Z,0.40
2024-02-26T13:09:05.281Z,1.10
2024-02-26T13:11:33.129Z,0.50
2024-02-26T13:14:00.251Z,0.50
2024-02-26T13:16:27.335Z,0.60
2024-02-26T13:18:54.493Z,0.50
2024-02-26T13:21:25.796Z,0.52
2024-02-26T13:23:55.976Z,0.50
2024-02-26T13:26:27.224Z,0.35
2024-02-26T13:29:04.681Z,0.50
2024-02-26T13:31:32.398Z,0.30
2024-02-26T13:33:59.491Z,0.30
2024-02-26T13:36:27.018Z,0.45
2024-02-26T13:38:56.547Z,0.30
2024-02-26T13:41:24.172Z,0.50
2024-02-26T13:43:51.644Z,0.30
2024-02-26T13:46:18.833Z,0.40
2024-02-26T13:48:46.238Z,0.30
2024-02-26T13:51:13.372Z,0.30
2024-02-26T13:53:40.377Z,0.40
2024-02-26T13:56:09.299Z,0.70
2024-02-26T13:58:36.829Z,0.28
2024-02-26T14:01:04.932Z,0.35
2024-02-26T14:03:32.106Z,0.25
2024-02-26T14:05:59.925Z,0.30
2024-02-26T14:08:28.831Z,0.20
2024-02-26T14:10:56.473Z,0.40
2024-02-26T14:13:26.401Z,0.38
2024-02-26T14:15:53.662Z,0.40
2024-02-26T14:18:20.792Z,0.38
2024-02-26T14:20:48.012Z,0.30
2024-02-26T14:23:15.804Z,0.30
2024-02-26T14:25:42.778Z,0.30
2024-02-26T14:28:15.038Z,0.20
2024-02-26T14:30:48.176Z,0.35
2024-02-26T14:33:15.299Z,0.40
2024-02-26T14:35:43.105Z,0.43
2024-02-26T14:38:10.344Z,0.40
2024-02-26T14:40:37.550Z,0.38
2024-02-26T14:43:06.101Z,0.40
2024-02-26T14:45:33.493Z,0.43
2024-02-26T14:48:01.978Z,0.35
2024-02-26T14:50:29.009Z,0.30
2024-02-26T14:52:56.062Z,0.30
2024-02-26T14:55:23.148Z,0.30
2024-02-26T14:57:50.201Z,0.40
2024-02-26T15:00:17.793Z,0.43
2024-02-26T15:02:45.229Z,0.30
2024-02-26T15:05:13.732Z,0.82
2024-02-26T15:07:41.617Z,0.30
2024-02-26T15:10:09.807Z,0.30
2024-02-26T15:12:37.366Z,0.40
2024-02-26T15:15:05.337Z,0.40
2024-02-26T15:17:35.462Z,0.32
2024-02-26T15:20:02.845Z,0.50
2024-02-26T15:22:31.245Z,0.30
2024-02-26T15:24:58.482Z,0.30
2024-02-26T15:27:25.758Z,0.50
2024-02-26T15:29:59.530Z,0.43
2024-02-26T15:32:27.937Z,0.47
2024-02-26T15:34:55.492Z,0.50
2024-02-26T15:37:22.694Z,0.40
2024-02-26T15:39:51.421Z,0.40
2024-02-26T15:42:18.532Z,0.22
2024-02-26T15:44:47.101Z,0.35
2024-02-26T15:47:14.255Z,0.40
2024-02-26T15:49:41.687Z,0.30
2024-02-26T15:52:08.733Z,0.40
2024-02-26T15:54:39.698Z,0.57
2024-02-26T15:57:10.502Z,0.50
2024-02-26T15:59:37.567Z,0.43
2024-02-26T16:02:05.012Z,0.30
2024-02-26T16:04:32.226Z,0.60
2024-02-26T16:07:02.294Z,0.47
2024-02-26T16:09:30.602Z,0.57
2024-02-26T16:11:59.878Z,0.40
2024-02-26T16:14:46.754Z,0.40
2024-02-26T16:17:17.456Z,0.40
2024-02-26T16:19:45.035Z,0.60
2024-02-26T16:22:12.684Z,0.60
2024-02-26T16:24:39.823Z,0.40
2024-02-26T16:27:07.053Z,0.52
2024-02-26T16:29:35.657Z,0.60
2024-02-26T16:32:04.014Z,0.40
2024-02-26T16:34:31.274Z,0.40
2024-02-26T16:36:58.617Z,0.47
2024-02-26T16:39:25.656Z,0.32
2024-02-26T16:41:53.039Z,0.50
2024-02-26T16:44:20.096Z,0.63
2024-02-26T16:46:49.603Z,0.40
2024-02-26T16:49:17.256Z,0.80
2024-02-26T16:51:44.503Z,0.70
2024-02-26T16:54:11.636Z,0.40
2024-02-26T16:56:38.997Z,0.50
2024-02-26T16:59:06.244Z,0.50
2024-02-26T17:01:33.866Z,0.50
2024-02-26T17:04:03.362Z,0.40
2024-02-26T17:06:30.415Z,0.50
2024-02-26T17:08:57.492Z,0.55
2024-02-26T17:11:25.219Z,0.60
2024-02-26T17:13:52.471Z,0.52
2024-02-26T17:16:19.636Z,0.70
2024-02-26T17:18:46.893Z,0.77
2024-02-26T17:21:19.088Z,0.43
2024-02-26T17:23:47.379Z,0.55
2024-02-26T17:26:18.233Z,0.40
2024-02-26T17:28:45.420Z,0.52
2024-02-26T17:31:13.233Z,0.57
2024-02-26T17:33:40.502Z,0.55
2024-02-26T17:36:09.369Z,0.30
2024-02-26T17:38:38.523Z,0.50
2024-02-26T17:41:08.721Z,0.80
2024-02-26T17:43:35.897Z,0.68
2024-02-26T17:46:03.114Z,0.75
2024-02-26T17:48:31.221Z,0.60
2024-02-26T17:50:59.681Z,0.50
2024-02-26T17:53:27.686Z,0.60
2024-02-26T17:55:57.072Z,0.60
2024-02-26T17:58:24.068Z,0.70
2024-02-26T18:00:51.618Z,0.65
2024-02-26T18:03:18.790Z,0.63
2024-02-26T18:05:46.295Z,0.60
2024-02-26T18:08:13.409Z,0.70
2024-02-26T18:10:40.488Z,0.65
2024-02-26T18:13:09.672Z,0.50
2024-02-26T18:15:37.811Z,0.60
2024-02-26T18:18:05.435Z,0.65
2024-02-26T18:20:32.793Z,0.77
2024-02-26T18:22:59.776Z,0.77
2024-02-26T18:25:28.150Z,0.60
2024-02-26T18:27:55.110Z,0.60
2024-02-26T18:30:24.100Z,0.60
2024-02-26T18:32:52.769Z,1.00
2024-02-26T18:35:20.110Z,0.90
2024-02-26T18:37:47.407Z,0.85
2024-02-26T18:40:14.510Z,0.70
2024-02-26T18:42:41.637Z,0.60
2024-02-26T18:45:09.873Z,0.80
2024-02-26T18:47:38.401Z,0.77
2024-02-26T18:50:06.558Z,0.80
2024-02-26T18:52:33.655Z,0.73
2024-02-26T18:55:00.791Z,0.90
2024-02-26T18:57:29.210Z,0.63
2024-02-26T18:59:56.358Z,0.60
2024-02-26T19:02:23.322Z,1.00
2024-02-26T19:04:51.666Z,0.80
2024-02-26T19:07:19.063Z,0.75
2024-02-26T19:09:46.023Z,0.93
2024-02-26T19:12:13.141Z,0.95
2024-02-26T19:14:41.157Z,0.68
2024-02-26T19:17:08.758Z,0.80
2024-02-26T19:19:37.406Z,0.85
2024-02-26T19:22:12.128Z,0.75
2024-02-26T19:24:41.308Z,0.77
2024-02-26T19:27:08.647Z,0.77
2024-02-26T19:29:36.510Z,1.00
2024-02-26T19:32:05.259Z,0.63
2024-02-26T19:34:32.431Z,0.80
2024-02-26T19:37:02.984Z,1.00
2024-02-26T19:39:31.590Z,0.60
2024-02-26T19:41:58.890Z,0.90
2024-02-26T19:44:27.343Z,0.95
2024-02-26T19:46:54.472Z,0.70
2024-02-26T19:49:24.581Z,1.00
2024-02-26T19:51:52.118Z,0.85
2024-02-26T19:54:19.458Z,0.93
2024-02-26T19:56:48.858Z,0.88
2024-02-26T19:59:16.009Z,0.80
2024-02-26T20:01:43.335Z,0.90
2024-02-26T20:04:12.505Z,0.63
2024-02-26T20:06:40.728Z,0.90
2024-02-26T20:09:08.730Z,1.20
2024-02-26T20:11:37.815Z,0.90
2024-02-26T20:14:12.225Z,0.80
2024-02-26T20:16:39.629Z,0.70
2024-02-26T20:19:09.486Z,0.75
2024-02-26T20:21:40.864Z,0.70
2024-02-26T20:24:08.256Z,0.77
2024-02-26T20:26:36.081Z,0.68
2024-02-26T20:29:03.068Z,1.00
2024-02-26T20:31:32.150Z,0.65
2024-02-26T20:34:04.486Z,0.88
2024-02-26T20:36:31.615Z,0.90
2024-02-26T20:38:58.865Z,0.73
2024-02-26T20:41:26.296Z,0.82
2024-02-26T20:43:53.805Z,0.70
2024-02-26T20:46:21.080Z,0.90
2024-02-26T20:48:50.539Z,0.82
2024-02-26T20:51:17.876Z,0.90
2024-02-26T20:53:45.600Z,1.10
2024-02-26T20:56:14.097Z,1.10
2024-02-26T20:58:41.104Z,1.00
2024-02-26T21:01:10.368Z,1.15
2024-02-26T21:03:37.703Z,1.30
2024-02-26T21:06:06.743Z,1.15
2024-02-26T21:08:38.003Z,0.73
2024-02-26T21:11:07.225Z,0.75
2024-02-26T21:13:36.254Z,1.13
2024-02-26T21:16:03.811Z,0.70
2024-02-26T21:18:34.513Z,0.90
2024-02-26T21:21:02.520Z,0.75
2024-02-26T21:23:30.961Z,0.73
2024-02-26T21:25:58.376Z,0.80
2024-02-26T21:28:25.535Z,0.70
2024-02-26T21:30:57.832Z,0.70
2024-02-26T21:33:25.302Z,0.95
2024-02-26T21:35:54.726Z,0.75
2024-02-26T21:38:29.118Z,0.73
2024-02-26T21:41:10.608Z,1.42
2024-02-26T21:43:40.517Z,1.02
2024-02-26T21:46:07.757Z,0.90
2024-02-26T21:48:37.319Z,0.80
2024-02-26T21:51:07.083Z,0.82
2024-02-26T21:53:34.138Z,1.02
2024-02-26T21:56:02.454Z,0.85
2024-02-26T21:58:30.778Z,0.82
2024-02-26T22:00:58.780Z,0.82
2024-02-26T22:03:26.007Z,0.90
2024-02-26T22:05:55.020Z,0.80
2024-02-26T22:08:22.362Z,0.80
2024-02-26T22:10:52.356Z,0.73
2024-02-26T22:13:19.470Z,1.08
2024-02-26T22:15:50.058Z,1.08
2024-02-26T22:18:17.450Z,1.05
2024-02-26T22:20:45.040Z,1.15
2024-02-26T22:23:12.142Z,0.90
2024-02-26T22:25:39.433Z,0.82
2024-02-26T22:28:06.675Z,0.77
2024-02-26T22:30:34.295Z,1.00
2024-02-26T22:33:04.264Z,0.90
2024-02-26T22:35:31.398Z,0.80
2024-02-26T22:37:59.710Z,1.08
2024-02-26T22:40:26.670Z,0.77
2024-02-26T22:42:57.132Z,1.63
2024-02-26T22:45:25.646Z,1.55
2024-02-26T22:47:53.032Z,0.77
2024-02-26T22:50:21.569Z,1.23
2024-02-26T22:52:48.735Z,0.90
2024-02-26T22:55:16.005Z,1.00
2024-02-26T22:57:43.380Z,0.82
2024-02-26T23:00:27.579Z,0.90
2024-02-26T23:02:55.192Z,1.05
2024-02-26T23:05:25.040Z,1.02
2024-02-26T23:07:52.768Z,0.90
2024-02-26T23:10:19.861Z,0.98
2024-02-26T23:12:47.053Z,0.75
2024-02-26T23:15:14.320Z,0.43
2024-02-26T23:17:42.176Z,0.88
2024-02-26T23:20:10.596Z,1.20
2024-02-26T23:22:44.360Z,1.40
2024-02-26T23:25:12.757Z,1.13
2024-02-26T23:27:43.282Z,1.63
2024-02-26T23:30:11.700Z,1.30
2024-02-26T23:32:39.149Z,1.40
2024-02-26T23:35:07.999Z,1.40
2024-02-26T23:37:36.795Z,1.08
2024-02-26T23:40:06.682Z,1.00
2024-02-26T23:42:34.850Z,1.13
2024-02-26T23:45:02.443Z,0.90
2024-02-26T23:47:32.523Z,1.05
2024-02-26T23:49:59.868Z,0.80
2024-02-26T23:52:27.307Z,1.10
2024-02-26T23:54:54.323Z,1.13
2024-02-26T23:57:22.833Z,1.58
2024-02-26T23:59:50.198Z,0.95
